createdAt,value
2023-04-15T00:01:07.147Z,10.82
2023-04-15T00:03:33.760Z,5.95
2023-04-15T00:06:00.605Z,8.23
2023-04-15T00:08:27.452Z,5.97
2023-04-15T00:10:53.894Z,11.10
2023-04-15T00:13:20.379Z,7.70
2023-04-15T00:15:46.904Z,8.15
2023-04-15T00:18:13.424Z,7.75
2023-04-15T00:20:40.054Z,6.90
2023-04-15T00:23:06.665Z,6.18
2023-04-15T00:25:33.209Z,5.88
2023-04-15T00:27:59.726Z,10.52
2023-04-15T00:30:26.165Z,7.55
2023-04-15T00:32:52.928Z,9.23
2023-04-15T00:35:19.592Z,8.70
2023-04-15T00:37:46.455Z,9.63
2023-04-15T00:40:13.737Z,7.53
2023-04-15T00:42:40.944Z,8.20
2023-04-15T00:45:08.116Z,6.22
2023-04-15T00:47:36.288Z,9.65
2023-04-15T00:50:02.948Z,5.82
2023-04-15T00:52:29.489Z,8.38
2023-04-15T00:54:56.232Z,5.65
2023-04-15T00:57:23.157Z,8.82
2023-04-15T00:59:50.810Z,7.22
2023-04-15T01:02:17.608Z,8.10
2023-04-15T01:04:44.287Z,8.80
2023-04-15T01:07:11.029Z,7.18
2023-04-15T01:09:37.940Z,6.65
2023-04-15T01:12:04.925Z,5.82
2023-04-15T01:14:31.970Z,7.63
2023-04-15T01:16:58.463Z,10.02
2023-04-15T01:19:25.149Z,11.20
2023-04-15T01:21:51.657Z,5.95
2023-04-15T01:24:19.294Z,8.23
2023-04-15T01:26:46.085Z,8.73
2023-04-15T01:29:12.979Z,7.00
2023-04-15T01:31:39.648Z,8.10
2023-04-15T01:34:06.133Z,7.63
2023-04-15T01:36:32.648Z,8.50
2023-04-15T01:38:59.365Z,10.20
2023-04-15T01:41:29.340Z,10.85
2023-04-15T01:43:55.847Z,8.25
2023-04-15T01:46:23.509Z,10.10
2023-04-15T01:48:50.389Z,9.67
2023-04-15T01:51:16.853Z,10.75
2023-04-15T01:53:43.621Z,9.50
2023-04-15T01:56:10.135Z,7.53
2023-04-15T01:58:36.838Z,6.23
2023-04-15T02:01:03.562Z,9.70
2023-04-15T02:03:30.631Z,6.97
2023-04-15T02:05:57.356Z,12.02
2023-04-15T02:08:24.191Z,7.13
2023-04-15T02:10:50.955Z,9.30
2023-04-15T02:13:17.694Z,15.48
2023-04-15T02:15:50.808Z,13.90
2023-04-15T02:18:17.346Z,9.80
2023-04-15T02:20:44.263Z,8.87
2023-04-15T02:23:10.852Z,12.23
2023-04-15T02:25:37.840Z,10.77
2023-04-15T02:28:05.463Z,9.98
2023-04-15T02:30:32.882Z,6.97
2023-04-15T02:33:00.513Z,8.63
2023-04-15T02:35:27.265Z,9.97
2023-04-15T02:37:53.793Z,7.70
2023-04-15T02:40:20.437Z,11.85
2023-04-15T02:42:47.111Z,7.87
2023-04-15T02:45:13.738Z,7.73
2023-04-15T02:47:40.267Z,7.60
2023-04-15T02:50:13.277Z,7.40
2023-04-15T02:52:40.758Z,8.70
2023-04-15T02:55:07.694Z,10.70
2023-04-15T02:57:34.159Z,9.68
2023-04-15T03:00:00.720Z,10.13
2023-04-15T03:02:27.256Z,11.50
2023-04-15T03:04:54.886Z,16.10
2023-04-15T03:07:21.425Z,12.23
2023-04-15T03:09:47.855Z,9.63
2023-04-15T03:12:14.432Z,6.33
2023-04-15T03:14:40.948Z,8.40
2023-04-15T03:17:07.479Z,8.93
2023-04-15T03:19:34.082Z,7.50
2023-04-15T03:22:00.487Z,11.13
2023-04-15T03:24:26.989Z,10.80
2023-04-15T03:26:53.629Z,7.57
2023-04-15T03:29:19.951Z,13.77
2023-04-15T03:31:46.493Z,9.37
2023-04-15T03:34:13.040Z,7.63
2023-04-15T03:36:39.647Z,7.77
2023-04-15T03:39:06.101Z,8.10
2023-04-15T03:41:32.515Z,6.90
2023-04-15T03:43:58.982Z,7.80
2023-04-15T03:46:25.777Z,10.73
2023-04-15T03:48:52.496Z,13.52
2023-04-15T03:51:18.906Z,11.80
2023-04-15T03:53:45.364Z,12.23
2023-04-15T03:56:11.738Z,9.47
2023-04-15T03:58:38.467Z,5.07
2023-04-15T04:01:04.962Z,7.55
2023-04-15T04:03:31.553Z,9.93
2023-04-15T04:05:58.098Z,8.98
2023-04-15T04:08:24.991Z,6.97
2023-04-15T04:10:51.389Z,9.27
2023-04-15T04:13:17.815Z,7.45
2023-04-15T04:15:44.660Z,8.82
2023-04-15T04:18:12.759Z,8.82
2023-04-15T04:20:39.237Z,11.37
2023-04-15T04:23:05.650Z,7.97
2023-04-15T04:25:32.111Z,6.70
2023-04-15T04:27:59.161Z,7.90
2023-04-15T04:30:27.027Z,8.47
2023-04-15T04:32:53.752Z,7.60
2023-04-15T04:35:20.309Z,8.10
2023-04-15T04:37:46.790Z,6.87
2023-04-15T04:40:13.511Z,8.67
2023-04-15T04:42:40.324Z,7.77
2023-04-15T04:45:07.368Z,10.90
2023-04-15T04:47:33.888Z,8.60
2023-04-15T04:50:00.663Z,13.48
2023-04-15T04:52:27.049Z,8.10
2023-04-15T04:54:53.543Z,10.57
2023-04-15T04:57:20.270Z,10.43
2023-04-15T04:59:46.923Z,12.47
2023-04-15T05:02:13.505Z,6.82
2023-04-15T05:04:40.166Z,8.20
2023-04-15T05:07:06.805Z,8.37
2023-04-15T05:09:33.365Z,6.47
2023-04-15T05:11:59.843Z,7.97
2023-04-15T05:14:26.905Z,9.17
2023-04-15T05:16:53.525Z,8.27
2023-04-15T05:19:20.110Z,9.57
2023-04-15T05:21:46.608Z,7.47
2023-04-15T05:24:13.121Z,8.30
2023-04-15T05:26:39.645Z,7.45
2023-04-15T05:29:06.316Z,6.20
2023-04-15T05:31:32.980Z,7.88
2023-04-15T05:33:59.592Z,7.43
2023-04-15T05:36:26.336Z,11.02
2023-04-15T05:38:53.086Z,11.43
2023-04-15T05:41:20.032Z,12.73
2023-04-15T05:43:46.888Z,13.05
2023-04-15T05:46:13.409Z,10.35
2023-04-15T05:48:39.874Z,9.00
2023-04-15T05:51:06.548Z,11.05
2023-04-15T05:53:33.489Z,11.23
2023-04-15T05:56:00.080Z,9.20
2023-04-15T05:58:26.851Z,9.60
2023-04-15T06:00:53.775Z,12.80
2023-04-15T06:03:21.109Z,9.45
2023-04-15T06:05:47.634Z,12.23
2023-04-15T06:08:14.029Z,12.38
2023-04-15T06:10:40.704Z,7.03
2023-04-15T06:13:07.814Z,8.95
2023-04-15T06:15:34.542Z,12.25
2023-04-15T06:18:01.015Z,9.13
2023-04-15T06:20:27.446Z,11.38
2023-04-15T06:22:54.167Z,11.68
2023-04-15T06:25:20.589Z,10.63
2023-04-15T06:27:47.079Z,8.98
2023-04-15T06:30:13.679Z,9.43
2023-04-15T06:32:40.548Z,9.15
2023-04-15T06:35:07.211Z,7.88
2023-04-15T06:37:34.105Z,8.02
2023-04-15T06:40:00.836Z,8.57
2023-04-15T06:42:27.546Z,8.25
2023-04-15T06:44:54.037Z,14.93
2023-04-15T06:47:20.975Z,7.78
2023-04-15T06:49:47.717Z,5.88
2023-04-15T06:52:14.690Z,10.60
2023-04-15T06:54:41.485Z,10.95
2023-04-15T06:57:08.006Z,6.40
2023-04-15T06:59:34.735Z,6.97
2023-04-15T07:02:01.744Z,7.85
2023-04-15T07:04:28.376Z,7.55
2023-04-15T07:06:55.195Z,7.47
2023-04-15T07:09:23.454Z,11.63
2023-04-15T07:11:49.987Z,10.57
2023-04-15T07:14:17.955Z,9.23
2023-04-15T07:16:44.527Z,12.00
2023-04-15T07:19:11.794Z,9.50
2023-04-15T07:21:39.961Z,8.88
2023-04-15T07:24:07.723Z,8.90
2023-04-15T07:26:34.863Z,9.18
2023-04-15T07:29:01.648Z,9.77
2023-04-15T07:31:28.413Z,9.57
2023-04-15T07:33:54.895Z,7.85
2023-04-15T07:36:21.286Z,12.18
2023-04-15T07:38:47.972Z,10.73
2023-04-15T07:41:14.593Z,7.75
2023-04-15T07:43:41.192Z,7.20
2023-04-15T07:46:07.880Z,11.25
2023-04-15T07:48:35.561Z,7.70
2023-04-15T07:51:03.740Z,8.13
2023-04-15T07:53:30.283Z,14.82
2023-04-15T07:55:56.680Z,9.15
2023-04-15T07:58:23.494Z,12.15
2023-04-15T08:00:49.961Z,10.18
2023-04-15T08:03:16.708Z,9.15
2023-04-15T08:05:43.151Z,11.10
2023-04-15T08:08:09.565Z,10.88
2023-04-15T08:10:36.335Z,10.35
2023-04-15T08:13:02.917Z,8.05
2023-04-15T08:15:29.328Z,9.05
2023-04-15T08:17:55.720Z,6.22
2023-04-15T08:20:22.455Z,8.88
2023-04-15T08:22:51.142Z,6.13
2023-04-15T08:25:18.829Z,7.77
2023-04-15T08:27:45.907Z,8.70
2023-04-15T08:30:12.734Z,8.18
2023-04-15T08:32:39.276Z,9.38
2023-04-15T08:35:06.422Z,8.27
2023-04-15T08:37:33.815Z,9.38
2023-04-15T08:40:00.188Z,8.30
2023-04-15T08:42:37.643Z,9.32
2023-04-15T08:45:05.533Z,7.05
2023-04-15T08:47:33.492Z,6.50
2023-04-15T08:50:04.232Z,11.35
2023-04-15T08:52:31.834Z,12.32
2023-04-15T08:55:00.375Z,7.57
2023-04-15T08:57:28.509Z,9.93
2023-04-15T08:59:58.336Z,9.07
2023-04-15T09:02:26.858Z,5.97
2023-04-15T09:04:54.200Z,7.80
2023-04-15T09:07:20.769Z,6.35
2023-04-15T09:09:48.596Z,7.68
2023-04-15T09:12:15.398Z,11.30
2023-04-15T09:14:42.417Z,8.27
2023-04-15T09:17:11.030Z,8.20
2023-04-15T09:19:40.458Z,7.25
2023-04-15T09:22:07.169Z,7.53
2023-04-15T09:24:36.811Z,6.80
2023-04-15T09:27:11.157Z,8.45
2023-04-15T09:29:41.665Z,10.32
2023-04-15T09:32:15.301Z,9.48
2023-04-15T09:34:41.712Z,12.15
2023-04-15T09:37:08.599Z,6.90
2023-04-15T09:39:52.511Z,8.32
2023-04-15T09:42:19.912Z,5.82
2023-04-15T09:44:47.036Z,4.63
2023-04-15T09:47:32.808Z,8.63
2023-04-15T09:50:00.564Z,9.45
2023-04-15T09:52:27.584Z,3.72
2023-04-15T09:54:55.161Z,5.90
2023-04-15T09:57:21.581Z,3.78
2023-04-15T09:59:48.385Z,4.78
2023-04-15T10:02:28.999Z,5.35
2023-04-15T10:04:56.095Z,3.97
2023-04-15T10:07:22.684Z,5.47
2023-04-15T10:09:49.697Z,4.03
2023-04-15T10:12:19.741Z,5.45
2023-04-15T10:14:57.568Z,8.13
2023-04-15T10:17:31.125Z,3.83
2023-04-15T10:20:00.666Z,3.67
2023-04-15T10:22:28.594Z,4.63
2023-04-15T10:24:56.828Z,5.10
2023-04-15T10:27:23.822Z,7.18
2023-04-15T10:29:55.140Z,5.50
2023-04-15T10:32:24.329Z,6.22
2023-04-15T10:34:54.193Z,14.32
2023-04-15T10:37:23.022Z,4.95
2023-04-15T10:39:49.617Z,6.00
2023-04-15T10:42:18.311Z,5.43
2023-04-15T10:44:53.178Z,6.53
2023-04-15T10:47:27.396Z,7.05
2023-04-15T10:49:59.584Z,5.60
2023-04-15T10:52:28.512Z,7.32
2023-04-15T10:55:13.584Z,7.22
2023-04-15T10:57:41.935Z,6.72
2023-04-15T11:00:08.370Z,6.95
2023-04-15T11:03:05.698Z,8.05
2023-04-15T11:05:41.780Z,5.20
2023-04-15T11:08:09.100Z,7.28
2023-04-15T11:10:35.519Z,6.13
2023-04-15T11:13:14.939Z,6.72
2023-04-15T11:15:43.078Z,11.30
2023-04-15T11:18:13.681Z,5.28
2023-04-15T11:20:44.100Z,6.20
2023-04-15T11:23:14.462Z,8.00
2023-04-15T11:25:43.539Z,4.53
2023-04-15T11:28:11.808Z,9.48
2023-04-15T11:30:41.485Z,12.70
2023-04-15T11:33:12.368Z,7.13
2023-04-15T11:35:42.278Z,7.18
2023-04-15T11:38:11.408Z,6.85
2023-04-15T11:40:39.211Z,7.68
2023-04-15T11:43:07.527Z,5.30
2023-04-15T11:45:35.547Z,8.80
2023-04-15T11:48:10.854Z,5.97
2023-04-15T11:50:38.932Z,7.03
2023-04-15T11:53:08.682Z,4.10
2023-04-15T11:55:46.264Z,4.15
2023-04-15T11:58:16.780Z,8.73
2023-04-15T12:01:01.885Z,6.63
2023-04-15T12:03:39.824Z,5.05
2023-04-15T12:06:25.210Z,6.72
2023-04-15T12:09:07.791Z,6.50
2023-04-15T12:11:36.112Z,13.63
2023-04-15T12:14:11.165Z,8.50
2023-04-15T12:16:59.523Z,6.00
2023-04-15T12:19:27.617Z,8.18
2023-04-15T12:22:02.221Z,7.78
2023-04-15T12:24:32.529Z,5.38
2023-04-15T12:27:03.914Z,8.50
2023-04-15T12:29:31.445Z,6.82
2023-04-15T12:32:09.741Z,9.85
2023-04-15T12:34:41.338Z,6.30
2023-04-15T12:37:10.550Z,7.53
2023-04-15T12:39:39.335Z,5.97
2023-04-15T12:42:07.015Z,6.75
2023-04-15T12:44:34.204Z,5.72
2023-04-15T12:47:00.981Z,6.63
2023-04-15T12:49:28.457Z,4.40
2023-04-15T12:51:56.527Z,4.13
2023-04-15T12:54:23.423Z,7.05
2023-04-15T12:56:51.258Z,9.02
2023-04-15T12:59:17.902Z,5.15
2023-04-15T13:01:45.788Z,4.82
2023-04-15T13:04:12.324Z,5.90
2023-04-15T13:06:38.999Z,3.80
2023-04-15T13:09:06.075Z,6.93
2023-04-15T13:11:33.632Z,4.95
2023-04-15T13:14:05.894Z,6.07
2023-04-15T13:16:33.927Z,7.70
2023-04-15T13:19:02.318Z,6.57
2023-04-15T13:21:28.964Z,6.55
2023-04-15T13:23:55.671Z,4.82
2023-04-15T13:26:23.133Z,3.80
2023-04-15T13:28:49.519Z,3.80
2023-04-15T13:31:16.155Z,5.50
2023-04-15T13:33:42.701Z,3.45
2023-04-15T13:36:09.230Z,3.65
2023-04-15T13:38:35.563Z,5.28
2023-04-15T13:41:02.252Z,2.78
2023-04-15T13:43:28.703Z,4.00
2023-04-15T13:45:56.581Z,2.70
2023-04-15T13:48:23.145Z,2.58
2023-04-15T13:50:50.062Z,4.68
2023-04-15T13:53:16.429Z,5.75
2023-04-15T13:55:44.689Z,3.13
2023-04-15T13:58:11.420Z,4.07
2023-04-15T14:00:38.156Z,1.20
2023-04-15T14:03:04.749Z,3.33
2023-04-15T14:05:32.330Z,2.95
2023-04-15T14:07:59.905Z,1.33
2023-04-15T14:10:26.372Z,1.15
2023-04-15T14:12:52.897Z,2.40
2023-04-15T14:15:19.373Z,2.00
2023-04-15T14:17:46.077Z,1.05
2023-04-15T14:20:14.520Z,0.82
2023-04-15T14:22:42.865Z,3.80
2023-04-15T14:25:11.720Z,2.72
2023-04-15T14:27:44.166Z,1.40
2023-04-15T14:30:11.713Z,3.65
2023-04-15T14:32:38.265Z,1.27
2023-04-15T14:35:07.509Z,1.15
2023-04-15T14:37:33.879Z,2.00
2023-04-15T14:40:00.616Z,2.40
2023-04-15T14:42:33.677Z,1.05
2023-04-15T14:45:00.018Z,4.50
2023-04-15T14:47:26.628Z,0.88
2023-04-15T14:49:53.451Z,2.35
2023-04-15T14:52:20.613Z,1.98
2023-04-15T14:54:49.900Z,2.97
2023-04-15T14:57:19.834Z,1.92
2023-04-15T14:59:46.344Z,2.38
2023-04-15T15:02:31.658Z,1.95
2023-04-15T15:05:03.850Z,2.95
2023-04-15T15:07:30.736Z,4.25
2023-04-15T15:09:57.286Z,2.58
2023-04-15T15:12:25.578Z,2.95
2023-04-15T15:14:56.555Z,4.80
2023-04-15T15:17:23.558Z,1.40
2023-04-15T15:19:50.432Z,1.73
2023-04-15T15:22:20.867Z,1.38
2023-04-15T15:24:48.047Z,2.75
2023-04-15T15:27:16.083Z,2.00
2023-04-15T15:29:43.751Z,2.42
2023-04-15T15:32:10.485Z,2.15
2023-04-15T15:34:37.009Z,1.88
2023-04-15T15:37:03.679Z,5.82
2023-04-15T15:39:32.757Z,4.82
2023-04-15T15:41:59.184Z,1.38
2023-04-15T15:44:25.678Z,3.03
2023-04-15T15:46:52.454Z,1.92
2023-04-15T15:49:19.285Z,3.45
2023-04-15T15:51:46.040Z,9.55
2023-04-15T15:54:15.577Z,3.05
2023-04-15T15:56:41.963Z,3.83
2023-04-15T15:59:11.204Z,4.28
2023-04-15T16:01:38.024Z,1.67
2023-04-15T16:04:04.908Z,2.67
2023-04-15T16:06:32.745Z,4.13
2023-04-15T16:09:00.723Z,3.08
2023-04-15T16:11:27.634Z,3.50
2023-04-15T16:13:54.056Z,1.90
2023-04-15T16:16:20.543Z,3.05
2023-04-15T16:18:47.873Z,3.67
2023-04-15T16:21:17.095Z,2.42
2023-04-15T16:23:43.651Z,3.00
2023-04-15T16:26:10.236Z,3.53
2023-04-15T16:28:37.541Z,4.55
2023-04-15T16:31:04.171Z,3.90
2023-04-15T16:33:30.716Z,3.28
2023-04-15T16:35:58.101Z,2.22
2023-04-15T16:38:25.624Z,4.22
2023-04-15T16:40:52.070Z,4.45
2023-04-15T16:43:19.343Z,3.55
2023-04-15T16:45:46.226Z,4.53
2023-04-15T16:48:13.080Z,3.58
2023-04-15T16:50:39.678Z,7.25
2023-04-15T16:53:06.640Z,2.60
2023-04-15T16:55:33.748Z,3.40
2023-04-15T16:58:02.941Z,3.22
2023-04-15T17:00:31.616Z,3.08
2023-04-15T17:03:01.706Z,3.22
2023-04-15T17:05:29.082Z,4.00
2023-04-15T17:07:55.502Z,4.13
2023-04-15T17:10:23.628Z,4.53
2023-04-15T17:12:50.985Z,3.08
2023-04-15T17:15:18.899Z,3.53
2023-04-15T17:17:45.688Z,3.22
2023-04-15T17:20:12.358Z,3.28
2023-04-15T17:22:39.091Z,3.80
2023-04-15T17:25:08.851Z,4.53
2023-04-15T17:27:35.977Z,4.60
2023-04-15T17:30:02.593Z,4.35
2023-04-15T17:32:29.435Z,4.28
2023-04-15T17:34:56.293Z,5.57
2023-04-15T17:37:22.768Z,4.18
2023-04-15T17:39:49.652Z,7.60
2023-04-15T17:42:16.145Z,6.40
2023-04-15T17:44:42.849Z,4.07
2023-04-15T17:47:09.698Z,5.07
2023-04-15T17:49:36.102Z,5.82
2023-04-15T17:52:02.750Z,5.45
2023-04-15T17:54:29.454Z,3.70
2023-04-15T17:57:00.568Z,4.93
2023-04-15T17:59:28.122Z,4.60
2023-04-15T18:01:55.710Z,4.43
2023-04-15T18:04:25.835Z,3.17
2023-04-15T18:06:54.281Z,3.65
2023-04-15T18:09:21.281Z,3.60
2023-04-15T18:11:47.840Z,5.63
2023-04-15T18:14:27.058Z,3.80
2023-04-15T18:16:57.504Z,2.95
2023-04-15T18:19:23.950Z,2.53
2023-04-15T18:21:50.635Z,3.38
2023-04-15T18:24:17.328Z,2.58
2023-04-15T18:26:43.818Z,2.63
2023-04-15T18:29:11.009Z,2.08
2023-04-15T18:31:37.858Z,1.60
2023-04-15T18:34:07.053Z,1.73
2023-04-15T18:36:34.204Z,2.00
2023-04-15T18:39:00.817Z,1.70
2023-04-15T18:41:27.717Z,2.25
2023-04-15T18:43:54.341Z,4.00
2023-04-15T18:46:20.823Z,4.10
2023-04-15T18:48:48.941Z,2.63
2023-04-15T18:51:18.251Z,2.28
2023-04-15T18:53:44.751Z,2.17
2023-04-15T18:56:11.298Z,2.63
2023-04-15T18:59:25.302Z,3.28
2023-04-15T19:01:24.285Z,2.42
2023-04-15T19:03:50.749Z,2.60
2023-04-15T19:06:17.271Z,2.25
2023-04-15T19:08:45.846Z,3.10
2023-04-15T19:11:12.182Z,2.28
2023-04-15T19:13:39.029Z,2.15
2023-04-15T19:16:05.686Z,2.00
2023-04-15T19:18:35.395Z,2.38
2023-04-15T19:21:04.280Z,3.20
2023-04-15T19:23:31.978Z,3.13
2023-04-15T19:25:58.450Z,2.42
2023-04-15T19:28:24.829Z,4.85
2023-04-15T19:30:51.329Z,3.80
2023-04-15T19:33:18.148Z,2.80
2023-04-15T19:35:45.032Z,2.78
2023-04-15T19:38:11.784Z,2.60
2023-04-15T19:40:38.421Z,3.00
2023-04-15T19:43:05.140Z,2.92
2023-04-15T19:45:31.849Z,4.40
2023-04-15T19:48:00.509Z,4.13
2023-04-15T19:50:26.989Z,4.95
2023-04-15T19:52:54.158Z,4.65
2023-04-15T19:55:23.560Z,5.10
2023-04-15T19:57:50.263Z,5.85
2023-04-15T20:00:17.563Z,6.32
2023-04-15T20:02:44.027Z,7.38
2023-04-15T20:05:10.555Z,5.88
2023-04-15T20:07:37.803Z,6.03
2023-04-15T20:10:12.342Z,6.32
2023-04-15T20:12:50.349Z,7.30
2023-04-15T20:15:19.361Z,7.53
2023-04-15T20:17:46.316Z,8.00
2023-04-15T20:20:13.006Z,8.10
2023-04-15T20:22:39.400Z,7.07
2023-04-15T20:25:06.469Z,13.32
2023-04-15T20:27:33.998Z,7.72
2023-04-15T20:30:01.145Z,7.82
2023-04-15T20:32:27.644Z,7.07
2023-04-15T20:34:54.113Z,6.07
2023-04-15T20:37:20.796Z,5.30
2023-04-15T20:39:47.515Z,7.20
2023-04-15T20:42:14.050Z,6.20
2023-04-15T20:44:40.808Z,7.00
2023-04-15T20:47:08.016Z,6.22
2023-04-15T20:49:37.001Z,6.63
2023-04-15T20:52:08.269Z,7.25
2023-04-15T20:54:35.523Z,8.05
2023-04-15T20:57:03.027Z,8.75
2023-04-15T20:59:30.115Z,8.65
2023-04-15T21:01:57.036Z,8.77
2023-04-15T21:04:23.627Z,10.75
2023-04-15T21:06:50.329Z,13.15
2023-04-15T21:09:17.048Z,15.10
2023-04-15T21:12:00.536Z,10.65
2023-04-15T21:14:28.484Z,10.57
2023-04-15T21:16:55.285Z,11.85
2023-04-15T21:19:22.135Z,11.75
2023-04-15T21:21:49.881Z,13.45
2023-04-15T21:24:19.577Z,13.40
2023-04-15T21:26:46.121Z,13.43
2023-04-15T21:29:13.376Z,16.17
2023-04-15T21:32:03.469Z,13.38
2023-04-15T21:34:29.895Z,10.05
2023-04-15T21:36:56.680Z,11.48
2023-04-15T21:39:23.421Z,11.48
2023-04-15T21:41:50.093Z,12.35
2023-04-15T21:44:16.705Z,9.60
2023-04-15T21:46:46.064Z,10.38
2023-04-15T21:49:12.722Z,11.85
2023-04-15T21:51:40.148Z,11.70
2023-04-15T21:54:06.676Z,13.65
2023-04-15T21:56:33.109Z,13.15
2023-04-15T21:58:59.613Z,11.30
2023-04-15T22:01:26.642Z,9.82
2023-04-15T22:03:53.435Z,11.45
2023-04-15T22:06:20.375Z,10.35
2023-04-15T22:08:55.994Z,11.40
2023-04-15T22:11:23.210Z,10.45
2023-04-15T22:13:50.667Z,10.02
2023-04-15T22:16:19.900Z,9.85
2023-04-15T22:18:46.584Z,11.82
2023-04-15T22:21:14.256Z,12.07
2023-04-15T22:23:40.665Z,12.18
2023-04-15T22:26:07.487Z,12.02
2023-04-15T22:28:34.022Z,13.73
2023-04-15T22:31:00.547Z,12.52
2023-04-15T22:33:27.037Z,11.45
2023-04-15T22:36:00.988Z,12.73
2023-04-15T22:38:28.680Z,10.27
2023-04-15T22:40:55.162Z,9.43
2023-04-15T22:43:22.025Z,11.13
2023-04-15T22:45:56.220Z,12.32
2023-04-15T22:48:23.781Z,10.25
2023-04-15T22:50:50.650Z,12.23
2023-04-15T22:53:18.265Z,12.85
2023-04-15T22:55:48.822Z,14.35
2023-04-15T22:58:17.523Z,13.50
2023-04-15T23:00:44.705Z,14.55
2023-04-15T23:03:11.241Z,15.68
2023-04-15T23:05:37.987Z,17.02
2023-04-15T23:08:04.738Z,17.88
2023-04-15T23:10:32.058Z,17.85
2023-04-15T23:12:58.575Z,18.40
2023-04-15T23:15:25.094Z,19.63
2023-04-15T23:17:52.977Z,17.35
2023-04-15T23:20:19.687Z,19.40
2023-04-15T23:22:46.201Z,18.13
2023-04-15T23:25:12.571Z,16.10
2023-04-15T23:27:38.959Z,19.58
2023-04-15T23:30:06.315Z,19.48
2023-04-15T23:32:32.746Z,17.02
2023-04-15T23:34:59.490Z,19.63
2023-04-15T23:37:25.847Z,16.33
2023-04-15T23:39:52.468Z,19.65
2023-04-15T23:42:19.163Z,14.82
2023-04-15T23:44:45.822Z,17.67
2023-04-15T23:47:12.211Z,15.48
2023-04-15T23:49:38.585Z,17.00
2023-04-15T23:52:06.002Z,17.20
2023-04-15T23:54:32.558Z,17.10
2023-04-15T23:56:59.056Z,17.88
2023-04-15T23:59:25.526Z,16.25
